Time;durP1;ratioP1;P1;durP2;ratioP2;P2;SDS_P1;SDS_P2;PMS_P1;PMS_P2;Temp;Humidity;BMP_temperature;BMP_pressure;BME280_temperature;BME280_humidity;BME280_pressure;Samples;Min_cycle;Max_cycle;Signal;HPM_P1;HPM_P2
2021/09/15 00:00:06;;;;;;;3.03;2.05;;;;;;;19.21;88.28;100731.88;5008629;28;20041;-69
2021/09/15 00:02:37;;;;;;;4.53;2.03;;;;;;;19.19;88.59;100728.00;5004478;28;20498;-66
2021/09/15 00:05:03;;;;;;;4.03;2.00;;;;;;;19.26;88.24;100725.94;5011260;28;20037;-66
2021/09/15 00:07:29;;;;;;;4.10;2.08;;;;;;;19.24;88.01;100719.38;4990939;28;20105;-68
2021/09/15 00:09:54;;;;;;;4.03;1.92;;;;;;;19.21;88.19;100722.91;5009715;28;20196;-67
2021/09/15 00:12:20;;;;;;;3.63;1.92;;;;;;;19.14;88.38;100717.56;5007535;28;20402;-67
2021/09/15 00:14:45;;;;;;;4.07;1.77;;;;;;;19.16;89.02;100713.22;5000512;28;20129;-67
2021/09/15 00:17:11;;;;;;;2.72;1.90;;;;;;;19.13;88.10;100716.75;5007374;28;20030;-67
2021/09/15 00:19:36;;;;;;;3.33;2.00;;;;;;;19.18;88.05;100704.63;5004355;28;20046;-65
2021/09/15 00:22:02;;;;;;;2.60;1.90;;;;;;;19.17;87.92;100692.13;5009454;28;20034;-66
2021/09/15 00:24:27;;;;;;;4.60;2.20;;;;;;;19.23;87.73;100690.50;5004319;28;20026;-66
2021/09/15 00:26:53;;;;;;;3.95;2.13;;;;;;;19.16;88.16;100682.41;5001908;28;20390;-68
2021/09/15 00:29:18;;;;;;;3.13;2.17;;;;;;;19.10;88.38;100695.75;5006638;28;20457;-69
2021/09/15 00:31:44;;;;;;;5.45;2.13;;;;;;;19.07;88.91;100688.38;4988430;28;20041;-66
2021/09/15 00:34:09;;;;;;;3.50;1.98;;;;;;;19.04;88.54;100688.44;5004769;28;20026;-66
2021/09/15 00:36:35;;;;;;;2.65;1.90;;;;;;;19.10;88.18;100694.97;5001924;28;20034;-66
2021/09/15 00:39:00;;;;;;;3.92;2.00;;;;;;;18.99;88.90;100686.16;5009558;28;20045;-66
2021/09/15 00:41:26;;;;;;;4.13;2.20;;;;;;;19.04;88.87;100683.75;5010374;28;20445;-66
2021/09/15 00:44:04;;;;;;;2.92;2.25;;;;;;;19.00;88.56;100688.47;5003631;28;20407;-66
2021/09/15 00:46:30;;;;;;;3.50;2.10;;;;;;;18.90;89.21;100681.97;5008168;28;20038;-68
2021/09/15 00:48:56;;;;;;;3.33;2.20;;;;;;;18.96;89.53;100690.47;5006779;28;20490;-66
2021/09/15 00:51:21;;;;;;;4.03;2.50;;;;;;;18.97;89.21;100691.25;4989596;28;20553;-66
2021/09/15 00:53:47;;;;;;;4.00;2.30;;;;;;;18.99;89.15;100697.09;5003193;28;20509;-66
2021/09/15 00:56:13;;;;;;;4.07;2.33;;;;;;;18.90;89.35;100700.31;5010101;28;20113;-66
2021/09/15 00:58:39;;;;;;;3.42;2.17;;;;;;;18.92;89.41;100687.03;5011093;28;20116;-65
2021/09/15 01:01:05;;;;;;;3.90;2.08;;;;;;;18.99;89.40;100676.00;4997617;28;20030;-66
2021/09/15 01:03:32;;;;;;;5.13;2.00;;;;;;;19.03;89.43;100665.81;5008586;28;20032;-65
2021/09/15 01:05:58;;;;;;;3.25;2.15;;;;;;;19.09;88.76;100655.19;4992989;28;20042;-66
2021/09/15 01:08:24;;;;;;;6.60;1.90;;;;;;;19.09;88.74;100658.69;5009146;28;20034;-66
2021/09/15 01:10:52;;;;;;;3.45;2.22;;;;;;;19.06;88.82;100656.81;4986880;28;20041;-70
2021/09/15 01:13:29;;;;;;;4.55;2.58;;;;;;;18.89;89.42;100652.38;5001448;28;20038;-66
2021/09/15 01:16:12;;;;;;;2.67;2.10;;;;;;;18.88;89.11;100650.81;4998454;28;22051;-68
2021/09/15 01:19:10;;;;;;;5.90;2.40;;;;;;;18.92;88.97;100640.63;4950454;28;20041;-66
2021/09/15 01:22:00;;;;;;;4.72;2.22;;;;;;;18.89;89.24;100636.75;4987822;28;20030;-65
2021/09/15 01:24:37;;;;;;;3.88;2.40;;;;;;;18.72;90.02;100642.44;5000731;28;20038;-66
2021/09/15 01:27:18;;;;;;;2.72;2.00;;;;;;;18.74;90.51;100646.31;4990702;28;20030;-65
2021/09/15 01:30:04;;;;;;;3.63;2.20;;;;;;;18.81;89.82;100640.00;4997404;28;20057;-67
2021/09/15 01:32:30;;;;;;;3.38;2.13;;;;;;;18.87;89.38;100647.31;5001781;28;20078;-66
2021/09/15 01:34:56;;;;;;;6.45;2.50;;;;;;;18.84;89.58;100647.34;4995961;28;20037;-66
2021/09/15 01:37:25;;;;;;;2.63;2.03;;;;;;;18.83;89.66;100641.13;5002911;28;20026;-66
2021/09/15 01:40:03;;;;;;;3.90;2.45;;;;;;;18.84;90.00;100639.16;5005419;28;20045;-69
2021/09/15 01:42:32;;;;;;;4.35;2.70;;;;;;;18.84;89.49;100650.09;5007865;28;20049;-67
2021/09/15 01:45:00;;;;;;;8.40;2.70;;;;;;;18.88;90.08;100650.81;4999300;28;20525;-68
2021/09/15 01:47:25;;;;;;;3.58;2.20;;;;;;;18.81;90.48;100661.84;5003185;28;20064;-65
2021/09/15 01:49:51;;;;;;;3.58;2.55;;;;;;;18.80;90.96;100655.59;4986910;28;20034;-67
2021/09/15 01:52:17;;;;;;;4.35;2.53;;;;;;;18.73;90.92;100657.66;4988565;28;20026;-65
2021/09/15 01:54:45;;;;;;;5.03;2.72;;;;;;;18.72;91.11;100651.41;4999901;28;20034;-66
2021/09/15 01:57:12;;;;;;;3.35;2.00;;;;;;;18.82;91.00;100649.72;5006139;28;20034;-66
2021/09/15 02:00:10;;;;;;;4.10;2.67;;;;;;;18.89;90.59;100644.94;4962012;28;20045;-67
2021/09/15 02:02:43;;;;;;;4.85;2.60;;;;;;;18.86;90.61;100639.53;5004241;28;20044;-66
2021/09/15 02:05:26;;;;;;;5.18;2.35;;;;;;;18.78;91.46;100632.63;4989557;28;20033;-68
2021/09/15 02:08:04;;;;;;;4.13;2.33;;;;;;;18.84;90.83;100630.97;4991718;28;20034;-66
2021/09/15 02:10:44;;;;;;;5.45;2.17;;;;;;;18.79;91.21;100632.19;5007855;28;20112;-65
2021/09/15 02:13:11;;;;;;;5.53;2.85;;;;;;;18.87;90.95;100625.47;4999280;28;20057;-65
2021/09/15 02:15:37;;;;;;;3.55;2.33;;;;;;;18.83;91.10;100616.56;4997282;28;20060;-65
2021/09/15 02:18:02;;;;;;;4.10;2.08;;;;;;;18.83;90.46;100619.28;5001470;28;20073;-66
2021/09/15 02:21:00;;;;;;;5.47;2.45;;;;;;;18.83;90.74;100622.00;4997571;28;20029;-66
2021/09/15 02:23:57;;;;;;;7.07;2.42;;;;;;;18.81;90.32;100621.66;5005104;28;20045;-69
2021/09/15 02:26:37;;;;;;;5.13;2.25;;;;;;;18.74;91.38;100621.75;4994722;28;20038;-67
2021/09/15 02:29:04;;;;;;;4.10;2.70;;;;;;;18.77;91.21;100614.72;5005019;28;20667;-66
2021/09/15 02:31:35;;;;;;;5.97;2.25;;;;;;;18.80;90.49;100619.34;5011547;28;20038;-66
2021/09/15 02:34:19;;;;;;;6.85;2.88;;;;;;;18.73;90.49;100608.53;5004091;28;20046;-66
2021/09/15 02:37:06;;;;;;;4.70;2.50;;;;;;;18.70;91.22;100610.13;5004817;28;20494;-66
2021/09/15 02:39:58;;;;;;;5.03;2.95;;;;;;;18.69;90.95;100607.81;5009771;28;20041;-67
2021/09/15 02:42:40;;;;;;;5.93;2.63;;;;;;;18.63;91.17;100606.72;5007804;28;20034;-65
2021/09/15 02:45:12;;;;;;;4.70;2.60;;;;;;;18.60;91.24;100599.34;5001503;28;20083;-66
2021/09/15 02:47:48;;;;;;;4.40;2.55;;;;;;;18.65;91.27;100596.16;5009916;28;20037;-66
2021/09/15 02:50:35;;;;;;;4.72;2.78;;;;;;;18.62;91.65;100597.00;5002618;28;20490;-65
2021/09/15 02:53:19;;;;;;;5.00;3.00;;;;;;;18.58;91.90;100599.75;5008180;28;20056;-65
2021/09/15 02:56:03;;;;;;;4.05;2.40;;;;;;;18.52;92.20;100601.41;5006869;28;20052;-67
2021/09/15 02:58:46;;;;;;;4.80;2.58;;;;;;;18.58;91.64;100601.72;5007461;28;20053;-66
2021/09/15 03:01:26;;;;;;;5.53;2.60;;;;;;;18.59;92.15;100603.25;5004457;28;20038;-66
2021/09/15 03:03:54;;;;;;;5.18;2.97;;;;;;;18.56;92.66;100602.09;5009827;28;20022;-65
2021/09/15 03:06:31;;;;;;;7.30;2.65;;;;;;;18.56;93.06;100591.19;5003624;28;20052;-65
2021/09/15 03:09:19;;;;;;;5.03;3.15;;;;;;;18.59;93.64;100595.84;5012211;28;20498;-66
2021/09/15 03:11:45;;;;;;;4.45;2.83;;;;;;;18.60;93.84;100597.38;5006132;28;20037;-67
2021/09/15 03:14:12;;;;;;;6.75;3.40;;;;;;;18.62;94.52;100602.44;5010367;28;20109;-68
2021/09/15 03:16:37;;;;;;;4.95;2.88;;;;;;;18.61;94.75;100612.59;4997878;28;20121;-68
2021/09/15 03:19:08;;;;;;;5.60;2.65;;;;;;;18.59;94.62;100608.72;5004477;28;20125;-66
2021/09/15 03:21:39;;;;;;;3.83;2.42;;;;;;;18.67;94.24;100593.78;5007155;28;20061;-66
2021/09/15 03:24:04;;;;;;;5.88;2.80;;;;;;;18.64;94.17;100608.28;5004618;28;20029;-66
2021/09/15 03:26:30;;;;;;;4.93;2.90;;;;;;;18.56;94.86;100615.00;5009279;28;20517;-66
2021/09/15 03:28:55;;;;;;;6.80;2.83;;;;;;;18.51;94.54;100578.03;5001540;28;20110;-67
2021/09/15 03:31:21;;;;;;;4.65;3.00;;;;;;;18.53;94.58;100574.88;5006718;28;20581;-68
2021/09/15 03:33:47;;;;;;;3.97;2.70;;;;;;;18.51;94.66;100571.78;5005276;28;20117;-65
2021/09/15 03:36:16;;;;;;;5.47;3.53;;;;;;;18.49;95.74;100579.59;4997023;28;20577;-66
2021/09/15 03:38:42;;;;;;;5.75;2.53;;;;;;;18.42;96.91;100572.31;5002330;28;20026;-67
2021/09/15 03:41:07;;;;;;;6.18;2.97;;;;;;;18.44;97.29;100569.16;5005122;28;20026;-66
2021/09/15 03:43:33;;;;;;;6.25;2.90;;;;;;;18.48;96.58;100559.00;5000390;28;20076;-66
2021/09/15 03:46:00;;;;;;;6.50;3.05;;;;;;;18.42;97.60;100560.59;5003303;28;20041;-67
2021/09/15 03:48:26;;;;;;;7.72;3.22;;;;;;;18.43;97.66;100562.16;5004134;28;20498;-65
2021/09/15 03:50:52;;;;;;;5.75;3.10;;;;;;;18.39;98.21;100564.16;5006832;28;20500;-66
2021/09/15 03:53:19;;;;;;;5.65;2.80;;;;;;;18.38;98.53;100557.13;4994118;28;20026;-66
2021/09/15 03:55:45;;;;;;;8.10;3.60;;;;;;;18.35;97.31;100561.44;4994350;28;20038;-68
2021/09/15 03:58:10;;;;;;;5.57;3.28;;;;;;;18.29;97.88;100546.72;4990606;28;20033;-65
2021/09/15 04:00:36;;;;;;;7.70;3.30;;;;;;;18.28;97.74;100541.69;5001583;28;20034;-66
2021/09/15 04:03:02;;;;;;;6.75;3.38;;;;;;;18.26;98.55;100549.50;4997323;28;20449;-65
2021/09/15 04:05:30;;;;;;;6.38;3.45;;;;;;;18.20;98.49;100556.56;4992728;28;20026;-65
2021/09/15 04:07:57;;;;;;;5.00;3.08;;;;;;;18.21;98.59;100549.97;5009174;28;20065;-66
2021/09/15 04:10:23;;;;;;;6.45;3.15;;;;;;;18.21;98.18;100544.50;5008676;28;20040;-66
2021/09/15 04:12:48;;;;;;;7.45;3.22;;;;;;;18.21;98.01;100549.97;5002960;28;20034;-66
2021/09/15 04:15:14;;;;;;;7.75;3.63;;;;;;;18.13;98.26;100534.88;4999754;28;20034;-66
2021/09/15 04:17:42;;;;;;;6.07;3.60;;;;;;;18.18;98.26;100526.22;4982860;28;20033;-68
2021/09/15 04:20:08;;;;;;;5.28;3.13;;;;;;;18.18;98.80;100523.50;5008716;28;20029;-67
2021/09/15 04:22:36;;;;;;;6.18;3.58;;;;;;;18.27;98.56;100518.34;5008284;28;20151;-67
2021/09/15 04:33:16;;;;;;;4.90;3.47;;;;;;;18.19;98.94;100514.94;5003534;28;20022;-67
2021/09/15 04:35:42;;;;;;;8.45;3.67;;;;;;;18.17;98.89;100514.56;5004686;28;20498;-68
2021/09/15 04:38:08;;;;;;;5.82;3.17;;;;;;;18.21;98.26;100518.03;4992581;28;20026;-65
2021/09/15 04:40:34;;;;;;;5.35;3.33;;;;;;;18.23;98.31;100521.13;4989877;28;20149;-67
2021/09/15 04:43:00;;;;;;;5.32;2.83;;;;;;;18.20;98.98;100515.69;4996404;28;20034;-67
2021/09/15 04:45:26;;;;;;;7.22;3.78;;;;;;;18.12;99.36;100516.97;5006101;28;20446;-66
2021/09/15 04:47:53;;;;;;;7.57;3.80;;;;;;;18.13;99.45;100516.56;5008139;28;20518;-68
2021/09/15 04:50:19;;;;;;;6.88;3.67;;;;;;;18.11;100.00;100518.16;5000020;28;20030;-66
2021/09/15 04:52:45;;;;;;;6.93;3.55;;;;;;;18.10;100.00;100525.53;5006770;28;20065;-66
2021/09/15 04:55:11;;;;;;;5.75;3.08;;;;;;;18.15;100.00;100507.97;4990566;28;20065;-69
2021/09/15 04:57:37;;;;;;;6.68;3.53;;;;;;;18.10;100.00;100505.72;5007855;28;20565;-69
2021/09/15 05:00:04;;;;;;;9.43;3.47;;;;;;;18.16;100.00;100502.09;4985524;28;20069;-73
2021/09/15 05:02:32;;;;;;;9.07;3.97;;;;;;;18.07;100.00;100495.59;4988440;28;20592;-66
2021/09/15 05:05:02;;;;;;;7.28;3.28;;;;;;;18.09;100.00;100506.88;4988305;28;20029;-69
2021/09/15 05:07:39;;;;;;;7.95;3.88;;;;;;;18.10;100.00;100505.72;5002543;28;20034;-69
2021/09/15 05:10:05;;;;;;;7.97;3.95;;;;;;;18.09;100.00;100507.66;4991876;28;20030;-67
2021/09/15 05:12:31;;;;;;;5.72;3.45;;;;;;;18.04;99.97;100516.28;5005487;28;20132;-66
2021/09/15 05:14:58;;;;;;;6.30;3.42;;;;;;;17.87;100.00;100509.88;5007136;28;20118;-67
2021/09/15 05:17:25;;;;;;;6.97;3.80;;;;;;;18.00;100.00;100499.97;4982726;28;20037;-70
2021/09/15 05:19:51;;;;;;;6.15;3.42;;;;;;;18.01;100.00;100506.19;5007479;28;20037;-67
2021/09/15 05:22:16;;;;;;;5.93;3.28;;;;;;;18.04;100.00;100514.31;5006401;28;20034;-71
2021/09/15 05:24:42;;;;;;;7.85;3.60;;;;;;;18.02;100.00;100508.50;5008341;28;20038;-66
2021/09/15 05:27:08;;;;;;;8.75;3.85;;;;;;;18.02;100.00;100507.75;4987486;28;20054;-67
2021/09/15 05:29:34;;;;;;;6.50;3.75;;;;;;;18.09;99.92;100509.59;4974800;28;20164;-67
2021/09/15 05:32:00;;;;;;;6.10;3.50;;;;;;;18.06;99.74;100503.00;4999115;28;20034;-67
2021/09/15 05:34:26;;;;;;;6.28;3.92;;;;;;;18.06;100.00;100503.00;5009228;23;20038;-66
2021/09/15 05:36:52;;;;;;;7.40;4.10;;;;;;;18.14;99.42;100501.00;4985309;28;20037;-67
2021/09/15 05:39:17;;;;;;;6.43;3.50;;;;;;;18.13;99.75;100511.13;5003375;28;20501;-66
2021/09/15 05:41:44;;;;;;;6.80;3.47;;;;;;;18.09;100.00;100501.44;4987004;28;20121;-66
2021/09/15 05:44:10;;;;;;;6.22;3.58;;;;;;;18.17;99.51;100500.94;4993317;28;20034;-66
2021/09/15 05:46:36;;;;;;;6.57;3.58;;;;;;;18.17;98.47;100494.72;4988833;28;20408;-66
2021/09/15 05:49:03;;;;;;;7.88;4.03;;;;;;;18.14;98.72;100490.84;4979906;28;20478;-67
2021/09/15 05:51:31;;;;;;;6.47;3.63;;;;;;;18.07;99.76;100487.44;5004859;28;20461;-66
2021/09/15 05:53:56;;;;;;;6.93;3.50;;;;;;;18.14;99.37;100481.91;4979456;28;20058;-66
2021/09/15 05:56:23;;;;;;;6.05;3.50;;;;;;;18.20;99.05;100491.94;4994232;28;20418;-66
2021/09/15 05:58:48;;;;;;;6.13;3.63;;;;;;;18.25;99.08;100488.75;4996805;28;20095;-66
2021/09/15 06:01:14;;;;;;;5.53;3.45;;;;;;;18.14;100.00;100493.56;4990390;28;20177;-66
2021/09/15 06:03:40;;;;;;;6.57;3.72;;;;;;;18.14;100.00;100495.53;4987172;28;20124;-66
2021/09/15 06:06:14;;;;;;;8.27;4.45;;;;;;;18.14;100.00;100490.84;5009788;28;20108;-66
2021/09/15 06:08:40;;;;;;;5.90;3.42;;;;;;;18.15;100.00;100492.41;4983942;28;20029;-66
2021/09/15 06:11:06;;;;;;;6.13;3.53;;;;;;;18.17;99.47;100494.72;4981614;28;20030;-66
2021/09/15 06:13:32;;;;;;;6.45;3.55;;;;;;;18.16;99.86;100490.41;4998160;28;20038;-66
2021/09/15 06:15:57;;;;;;;6.63;3.75;;;;;;;18.21;99.50;100484.53;5001494;28;20034;-66
2021/09/15 06:18:25;;;;;;;5.90;3.25;;;;;;;18.28;99.24;100481.69;4992091;28;20029;-66
2021/09/15 06:21:13;;;;;;;6.97;3.58;;;;;;;18.24;99.38;100479.03;4990524;28;20502;-66
2021/09/15 06:23:54;;;;;;;5.80;3.33;;;;;;;18.32;98.99;100471.50;4990816;28;20498;-66
2021/09/15 06:26:24;;;;;;;6.32;3.72;;;;;;;18.41;98.65;100474.50;5007875;28;20108;-66
2021/09/15 06:28:54;;;;;;;6.10;3.50;;;;;;;18.50;98.40;100480.25;5010497;28;20041;-66
2021/09/15 06:31:20;;;;;;;5.45;3.50;;;;;;;18.48;98.20;100475.22;5009673;28;20049;-66
2021/09/15 06:33:46;;;;;;;6.22;3.30;;;;;;;18.48;98.96;100482.63;5007528;28;20026;-66
2021/09/15 06:36:12;;;;;;;7.28;3.92;;;;;;;18.50;98.68;100480.25;5009319;28;20125;-66
2021/09/15 06:38:38;;;;;;;5.93;3.38;;;;;;;18.42;98.94;100482.31;5006914;28;20101;-66
2021/09/15 06:41:03;;;;;;;6.20;4.10;;;;;;;18.42;99.04;100471.41;5008007;28;20034;-66
2021/09/15 06:43:29;;;;;;;7.00;3.40;;;;;;;18.47;98.64;100472.88;5004538;28;20029;-66
2021/09/15 06:45:54;;;;;;;5.65;3.47;;;;;;;18.48;98.69;100472.47;5006714;28;20034;-66
2021/09/15 06:48:20;;;;;;;6.03;3.78;;;;;;;18.46;99.24;100474.06;5010397;28;20107;-66
2021/09/15 06:50:47;;;;;;;7.65;3.60;;;;;;;18.50;98.79;100474.78;5004544;28;20085;-66
2021/09/15 06:53:13;;;;;;;7.93;3.63;;;;;;;18.55;98.82;100463.41;5007375;28;20113;-66
2021/09/15 06:55:40;;;;;;;6.57;3.47;;;;;;;18.47;99.61;100470.94;5002120;28;20029;-66
2021/09/15 06:58:06;;;;;;;9.75;4.13;;;;;;;18.43;99.07;100477.59;5009234;28;20030;-66
2021/09/15 07:00:34;;;;;;;6.78;3.50;;;;;;;18.41;99.42;100479.94;5010746;28;20042;-66
2021/09/15 07:02:59;;;;;;;8.27;3.72;;;;;;;18.43;99.21;100475.66;4994423;28;20021;-66
2021/09/15 07:05:25;;;;;;;6.72;3.67;;;;;;;18.43;99.05;100491.25;5001554;28;20034;-66
2021/09/15 07:07:50;;;;;;;6.00;3.55;;;;;;;18.39;98.87;100493.25;5010707;28;20471;-66
2021/09/15 07:10:18;;;;;;;8.43;4.20;;;;;;;18.33;99.12;100478.53;5008125;28;20045;-66
2021/09/15 07:12:44;;;;;;;13.38;4.20;;;;;;;18.19;99.40;100486.88;5006951;28;20062;-66
2021/09/15 07:15:11;;;;;;;9.10;3.80;;;;;;;18.23;99.79;100482.94;4991845;28;20038;-66
2021/09/15 07:17:36;;;;;;;5.90;3.75;;;;;;;18.25;100.00;100479.81;5004975;28;20573;-66
2021/09/15 07:20:02;;;;;;;7.85;4.00;;;;;;;18.27;99.61;100489.13;5009222;28;20057;-67
2021/09/15 07:22:28;;;;;;;7.15;3.88;;;;;;;18.28;99.66;100487.16;5000162;28;20127;-66
2021/09/15 07:24:53;;;;;;;4.78;3.47;;;;;;;18.28;100.00;100493.38;4988028;28;20116;-66
2021/09/15 07:27:19;;;;;;;7.05;3.83;;;;;;;18.31;100.00;100489.06;5008112;28;20241;-67
2021/09/15 07:29:44;;;;;;;7.57;4.13;;;;;;;18.31;100.00;100495.28;4982293;28;20034;-66
2021/09/15 07:32:10;;;;;;;6.70;3.65;;;;;;;18.42;99.69;100495.13;4998274;28;20189;-66
2021/09/15 07:34:35;;;;;;;6.15;3.65;;;;;;;18.36;99.73;100496.78;4998135;28;20033;-66
2021/09/15 07:37:01;;;;;;;8.40;4.30;;;;;;;18.42;99.93;100500.59;5002822;28;20501;-66
2021/09/15 07:39:27;;;;;;;7.18;4.07;;;;;;;18.44;99.69;100503.72;5007823;28;20033;-66
2021/09/15 07:41:52;;;;;;;6.85;3.72;;;;;;;18.49;99.30;100509.47;5005211;28;20044;-66
2021/09/15 07:44:18;;;;;;;5.80;3.65;;;;;;;18.46;99.58;100514.97;5007224;28;20022;-67
2021/09/15 07:46:43;;;;;;;6.72;4.10;;;;;;;18.50;99.11;100508.31;5005331;28;20498;-66
2021/09/15 07:49:11;;;;;;;6.35;3.80;;;;;;;18.51;98.70;100514.50;4991603;28;20037;-66
2021/09/15 07:51:37;;;;;;;7.82;4.03;;;;;;;18.51;99.39;100520.75;5005708;28;20045;-66
2021/09/15 07:54:04;;;;;;;6.72;3.70;;;;;;;18.60;99.29;100515.53;5006932;28;20026;-66
2021/09/15 07:56:31;;;;;;;7.15;3.88;;;;;;;18.62;98.87;100528.78;5003901;28;20594;-67
2021/09/15 07:58:56;;;;;;;6.63;3.70;;;;;;;18.55;98.89;100520.69;5003569;28;20091;-66
2021/09/15 08:01:24;;;;;;;8.00;4.03;;;;;;;18.61;99.05;100529.97;5004974;28;20470;-66
2021/09/15 08:03:51;;;;;;;7.07;4.00;;;;;;;18.59;99.46;100532.31;5004286;28;20038;-66
2021/09/15 08:06:17;;;;;;;8.68;4.00;;;;;;;18.62;98.78;100517.88;5008882;28;20049;-66
2021/09/15 08:08:42;;;;;;;6.65;3.80;;;;;;;18.68;98.39;100516.97;5002431;28;20034;-66
2021/09/15 08:11:08;;;;;;;7.07;3.72;;;;;;;18.73;98.97;100507.56;5003420;28;20383;-66
2021/09/15 08:13:33;;;;;;;8.25;4.30;;;;;;;18.81;98.90;100509.00;5004368;28;20040;-66
2021/09/15 08:15:58;;;;;;;7.57;4.10;;;;;;;18.92;98.14;100507.66;5007919;28;20030;-66
2021/09/15 08:18:24;;;;;;;6.85;4.20;;;;;;;19.02;98.05;100508.66;5005943;28;20391;-66
2021/09/15 08:20:49;;;;;;;6.43;3.25;;;;;;;19.04;98.28;100500.81;5001684;28;21447;-66
2021/09/15 08:23:19;;;;;;;6.38;3.70;;;;;;;19.07;98.41;100504.66;4997372;28;20555;-67
2021/09/15 08:25:45;;;;;;;8.75;3.97;;;;;;;19.09;98.69;100507.75;5003433;28;20038;-66
2021/09/15 08:28:11;;;;;;;7.40;3.88;;;;;;;19.08;98.26;100508.94;4992018;28;20048;-66
2021/09/15 08:30:36;;;;;;;10.05;4.00;;;;;;;19.16;97.97;100522.09;5005853;28;20112;-66
2021/09/15 08:33:02;;;;;;;7.82;4.30;;;;;;;19.16;98.17;100524.03;5002944;28;20038;-66
2021/09/15 08:35:28;;;;;;;9.27;3.67;;;;;;;19.19;98.21;100528.66;5005566;28;20030;-66
2021/09/15 08:37:54;;;;;;;6.55;4.18;;;;;;;19.28;97.64;100523.44;5004683;28;20048;-66
2021/09/15 08:40:26;;;;;;;6.60;3.97;;;;;;;19.35;96.69;100513.19;5066931;27;20430;-67
2021/09/15 08:42:52;;;;;;;11.40;4.38;;;;;;;19.24;97.06;100520.00;5057481;28;20148;-67
2021/09/15 08:45:23;;;;;;;7.80;4.07;;;;;;;19.20;98.57;100516.56;5057583;28;20032;-67
2021/09/15 08:47:49;;;;;;;8.38;4.10;;;;;;;19.22;97.85;100520.41;5055130;28;20048;-66
2021/09/15 08:50:16;;;;;;;7.97;4.13;;;;;;;19.21;97.94;100513.41;5052353;28;20064;-66
2021/09/15 08:52:43;;;;;;;7.03;4.32;;;;;;;19.18;98.65;100525.13;5051511;28;20025;-67
2021/09/15 08:55:09;;;;;;;6.68;3.88;;;;;;;19.23;98.40;100519.22;5050817;28;20073;-67
2021/09/15 08:57:35;;;;;;;9.05;4.28;;;;;;;19.27;98.83;100522.66;5052922;28;20045;-67
2021/09/15 09:00:00;;;;;;;7.38;4.18;;;;;;;19.27;99.22;100522.66;5052444;28;20425;-66
2021/09/15 09:02:34;;;;;;;8.20;4.32;;;;;;;19.22;99.26;100522.38;5045842;28;20164;-67
2021/09/15 09:05:01;;;;;;;6.28;3.95;;;;;;;19.20;99.85;100519.28;5047727;28;20052;-67
2021/09/15 09:07:29;;;;;;;7.93;3.67;;;;;;;19.43;99.03;100520.06;5047123;28;20029;-67
2021/09/15 09:09:58;;;;;;;6.30;3.67;;;;;;;19.59;98.68;100522.88;5050739;28;20033;-66
2021/09/15 09:12:26;;;;;;;6.60;4.10;;;;;;;19.70;98.37;100517.22;5045019;28;20111;-66
2021/09/15 09:14:52;;;;;;;6.82;3.70;;;;;;;19.75;98.14;100514.78;5051731;28;20507;-66
2021/09/15 09:17:45;;;;;;;6.40;3.85;;;;;;;19.88;97.10;100516.88;5044851;28;20048;-67
2021/09/15 09:20:28;;;;;;;6.22;3.60;;;;;;;19.97;97.32;100514.34;5064369;28;20033;-66
2021/09/15 09:22:59;;;;;;;6.65;4.03;;;;;;;20.08;96.95;100509.41;5040325;28;20393;-66
2021/09/15 09:25:25;;;;;;;;;;;;;;;19.90;97.06;100511.78;5039431;28;20128;-66
2021/09/15 09:27:51;;;;;;;6.13;3.83;;;;;;;19.90;97.55;100507.06;5049844;28;20470;-66
2021/09/15 09:30:35;;;;;;;7.00;4.03;;;;;;;19.91;97.63;100499.63;5050178;28;20036;-66
2021/09/15 09:33:01;;;;;;;5.88;3.63;;;;;;;20.01;98.15;100495.91;5055097;28;20405;-66
2021/09/15 09:35:58;;;;;;;8.25;4.38;;;;;;;20.05;97.99;100499.34;5048206;28;20183;-66
2021/09/15 09:38:37;;;;;;;6.78;4.03;;;;;;;20.07;98.94;100488.75;5047791;28;20033;-66
2021/09/15 09:41:06;;;;;;;7.60;4.32;;;;;;;20.13;99.18;100489.81;5042235;28;20037;-66
2021/09/15 09:43:37;;;;;;;9.10;4.05;;;;;;;20.16;99.22;100492.44;5042507;28;20025;-66
2021/09/15 09:46:03;;;;;;;6.90;4.10;;;;;;;20.23;99.13;100495.06;5049132;28;20037;-66
2021/09/15 09:48:40;;;;;;;8.25;4.53;;;;;;;20.31;97.58;100490.19;5059593;28;20057;-67
2021/09/15 09:51:34;;;;;;;7.55;4.03;;;;;;;20.26;98.03;100479.78;5040969;28;20529;-66
2021/09/15 09:54:20;;;;;;;7.68;4.78;;;;;;;20.18;97.73;100470.94;5030731;28;20473;-66
2021/09/15 09:56:48;;;;;;;8.00;4.15;;;;;;;20.11;98.47;100470.31;5022347;28;20562;-66
2021/09/15 09:59:14;;;;;;;7.95;4.00;;;;;;;20.01;99.29;100466.59;5034146;28;20117;-66
2021/09/15 10:01:43;;;;;;;6.72;3.92;;;;;;;20.12;99.38;100463.63;5029985;28;20045;-66
2021/09/15 10:04:09;;;;;;;7.43;4.07;;;;;;;20.08;99.98;100462.94;5039696;28;20075;-66
2021/09/15 10:06:37;;;;;;;11.48;4.68;;;;;;;20.07;100.00;100464.91;5048233;28;20119;-66
2021/09/15 10:09:03;;;;;;;5.85;4.03;;;;;;;20.13;100.00;100462.44;5020681;28;20386;-66
2021/09/15 10:11:28;;;;;;;11.32;4.65;;;;;;;20.04;100.00;100459.50;5031648;28;20036;-66
2021/09/15 10:13:54;;;;;;;7.50;4.78;;;;;;;20.07;100.00;100450.47;5030190;28;20473;-66
2021/09/15 10:16:22;;;;;;;8.15;4.57;;;;;;;19.98;100.00;100445.56;5024375;28;20117;-67
2021/09/15 10:19:00;;;;;;;9.20;4.30;;;;;;;19.82;100.00;100442.81;5032191;28;20037;-67
2021/09/15 10:21:28;;;;;;;10.50;4.63;;;;;;;19.92;100.00;100430.84;5030767;28;20425;-67
2021/09/15 10:23:54;;;;;;;9.70;4.90;;;;;;;20.02;100.00;100426.34;5033262;28;20497;-66
2021/09/15 10:26:29;;;;;;;6.97;4.40;;;;;;;20.11;100.00;100438.25;5034774;28;20059;-66
2021/09/15 10:29:16;;;;;;;7.22;4.13;;;;;;;20.10;100.00;100428.50;5034765;28;20078;-66
2021/09/15 10:31:49;;;;;;;10.43;4.47;;;;;;;20.04;100.00;100432.94;5039450;28;20040;-66
2021/09/15 10:34:40;;;;;;;7.28;4.18;;;;;;;20.06;100.00;100425.06;5047217;28;20041;-66
2021/09/15 10:37:31;;;;;;;10.27;5.20;;;;;;;20.07;100.00;100431.31;5029003;28;20053;-66
2021/09/15 10:40:01;;;;;;;;;;;;;;;20.00;100.00;100426.78;5030313;28;20513;-66
2021/09/15 10:42:36;;;;;;;8.00;4.10;;;;;;;20.06;100.00;100427.03;5018044;28;19988;-66
2021/09/15 10:45:15;;;;;;;9.82;4.50;;;;;;;20.06;100.00;100419.59;5030046;28;20033;-67
2021/09/15 10:47:43;;;;;;;8.15;4.80;;;;;;;20.07;100.00;100420.38;5031228;28;20537;-66
2021/09/15 10:50:11;;;;;;;9.45;5.18;;;;;;;20.10;100.00;100411.31;5038045;28;20029;-67
2021/09/15 10:52:40;;;;;;;10.00;5.15;;;;;;;20.05;100.00;100409.88;5033909;28;20022;-66
2021/09/15 10:55:16;;;;;;;10.23;4.55;;;;;;;20.00;100.00;100417.78;5046640;28;20040;-66
2021/09/15 10:57:43;;;;;;;10.30;5.10;;;;;;;20.02;100.00;100413.44;5020173;28;20534;-66
2021/09/15 11:00:15;;;;;;;7.30;4.57;;;;;;;20.10;100.00;100414.06;5030587;28;20025;-66
2021/09/15 11:02:43;;;;;;;;;;;;;;;19.93;100.00;100413.25;5028618;28;20045;-66
2021/09/15 11:05:27;;;;;;;8.75;4.60;;;;;;;20.08;100.00;100424.66;5051695;28;20436;-66
2021/09/15 11:07:58;;;;;;;8.70;5.00;;;;;;;20.08;100.00;100421.91;5027366;28;20461;-66
2021/09/15 11:10:36;;;;;;;11.00;4.63;;;;;;;20.03;100.00;100417.72;5036234;28;20482;-66
2021/09/15 11:13:03;;;;;;;9.70;5.40;;;;;;;20.04;100.00;100418.47;5028040;28;20401;-66
2021/09/15 11:15:30;;;;;;;10.48;5.18;;;;;;;20.05;100.00;100414.56;5045090;28;20043;-66
2021/09/15 11:17:56;;;;;;;7.68;4.90;;;;;;;20.03;100.00;100416.97;5029821;28;20504;-66
2021/09/15 11:20:27;;;;;;;9.40;5.90;;;;;;;20.08;100.00;100410.97;5021440;28;20038;-66
2021/09/15 11:22:54;;;;;;;9.75;5.28;;;;;;;20.08;100.00;100406.28;5023972;28;20033;-66
2021/09/15 11:25:21;;;;;;;9.13;4.97;;;;;;;20.15;100.00;100394.44;5035596;28;20091;-66
2021/09/15 11:28:10;;;;;;;11.15;5.20;;;;;;;20.12;100.00;100392.53;5029314;28;20028;-66
2021/09/15 11:30:41;;;;;;;8.43;5.32;;;;;;;20.25;100.00;100394.19;5030614;28;20037;-66
2021/09/15 11:33:09;;;;;;;11.05;5.75;;;;;;;20.13;100.00;100396.81;5034274;28;20076;-66
2021/09/15 11:35:37;;;;;;;10.23;5.22;;;;;;;20.12;100.00;100398.00;5046491;22;20548;-65
2021/09/15 11:38:05;;;;;;;9.10;4.88;;;;;;;20.16;100.00;100407.66;5017446;28;20029;-65
2021/09/15 11:40:33;;;;;;;12.15;5.82;;;;;;;20.17;100.00;100403.72;5028519;28;20045;-65
2021/09/15 11:43:07;;;;;;;11.07;5.25;;;;;;;20.17;100.00;100408.44;5022149;28;20076;-65